createdAt,value
2023-05-01T00:01:09.486Z,5.13
2023-05-01T00:03:38.771Z,5.20
2023-05-01T00:06:07.868Z,5.00
2023-05-01T00:08:35.876Z,5.90
2023-05-01T00:11:04.593Z,6.00
2023-05-01T00:13:32.488Z,5.10
2023-05-01T00:16:00.264Z,5.40
2023-05-01T00:18:30.568Z,5.30
2023-05-01T00:20:59.701Z,5.40
2023-05-01T00:23:27.776Z,5.20
2023-05-01T00:25:55.545Z,6.00
2023-05-01T00:28:23.299Z,5.27
2023-05-01T00:30:51.197Z,5.67
2023-05-01T00:33:19.081Z,5.30
2023-05-01T00:35:47.130Z,5.20
2023-05-01T00:38:16.216Z,6.20
2023-05-01T00:40:44.610Z,5.13
2023-05-01T00:43:12.852Z,4.93
2023-05-01T00:45:44.250Z,5.33
2023-05-01T00:48:12.164Z,5.50
2023-05-01T00:50:40.306Z,5.30
2023-05-01T00:53:08.178Z,5.60
2023-05-01T00:55:39.319Z,5.03
2023-05-01T00:58:07.595Z,5.50
2023-05-01T01:00:35.433Z,5.20
2023-05-01T01:03:04.489Z,5.17
2023-05-01T01:05:35.233Z,4.87
2023-05-01T01:08:12.018Z,4.60
2023-05-01T01:10:52.038Z,4.30
2023-05-01T01:13:28.838Z,4.53
2023-05-01T01:16:05.077Z,4.50
2023-05-01T01:18:38.565Z,4.60
2023-05-01T01:21:13.485Z,4.50
2023-05-01T01:24:23.524Z,4.20
2023-05-01T01:27:20.096Z,4.70
2023-05-01T01:30:20.686Z,3.55
2023-05-01T01:33:06.975Z,5.30
2023-05-01T01:35:39.903Z,5.30
2023-05-01T01:38:15.690Z,4.60
2023-05-01T01:40:51.610Z,5.43
2023-05-01T01:43:21.731Z,5.00
2023-05-01T01:46:00.213Z,4.80
2023-05-01T01:48:34.101Z,4.33
2023-05-01T01:51:06.977Z,4.47
2023-05-01T01:53:37.541Z,4.00
2023-05-01T01:56:06.747Z,4.50
2023-05-01T01:58:37.526Z,3.93
2023-05-01T02:01:06.392Z,4.23
2023-05-01T02:03:34.593Z,3.80
2023-05-01T02:06:06.194Z,4.57
2023-05-01T02:08:37.019Z,4.10
2023-05-01T02:11:06.104Z,4.67
2023-05-01T02:13:34.979Z,3.87
2023-05-01T02:16:04.256Z,4.10
2023-05-01T02:18:32.761Z,4.77
2023-05-01T02:21:01.844Z,3.93
2023-05-01T02:23:31.995Z,4.40
2023-05-01T02:26:03.992Z,4.67
2023-05-01T02:28:33.224Z,4.23
2023-05-01T02:31:01.120Z,4.80
2023-05-01T02:33:29.389Z,4.40
2023-05-01T02:35:57.161Z,4.37
2023-05-01T02:38:25.019Z,5.10
2023-05-01T02:40:58.826Z,5.03
2023-05-01T02:43:28.440Z,4.30
2023-05-01T02:45:57.294Z,4.33
2023-05-01T02:48:28.921Z,3.87
2023-05-01T02:50:58.026Z,4.90
2023-05-01T02:53:25.770Z,4.10
2023-05-01T02:55:55.010Z,5.07
2023-05-01T02:58:23.474Z,4.37
2023-05-01T03:00:51.374Z,4.40
2023-05-01T03:03:19.376Z,3.63
2023-05-01T03:05:47.574Z,4.43
2023-05-01T03:08:15.336Z,4.07
2023-05-01T03:10:43.531Z,4.23
2023-05-01T03:13:12.969Z,3.93
2023-05-01T03:15:41.237Z,4.30
2023-05-01T03:18:09.377Z,4.00
2023-05-01T03:20:40.094Z,4.10
2023-05-01T03:23:07.861Z,4.60
2023-05-01T03:25:38.548Z,4.80
2023-05-01T03:28:06.324Z,4.47
2023-05-01T03:30:36.549Z,4.40
2023-05-01T03:33:04.426Z,4.47
2023-05-01T03:35:34.760Z,4.00
2023-05-01T03:38:02.539Z,4.30
2023-05-01T03:40:30.299Z,5.27
2023-05-01T03:42:58.129Z,3.77
2023-05-01T03:45:26.068Z,3.37
2023-05-01T03:47:55.982Z,3.80
2023-05-01T03:50:23.771Z,3.90
2023-05-01T03:52:51.694Z,4.43
2023-05-01T03:55:20.472Z,3.70
2023-05-01T03:57:48.269Z,3.40
2023-05-01T04:00:15.984Z,4.10
2023-05-01T04:02:44.073Z,3.50
2023-05-01T04:05:13.982Z,3.80
2023-05-01T04:07:41.954Z,3.53
2023-05-01T04:10:10.618Z,4.37
2023-05-01T04:12:38.359Z,3.80
2023-05-01T04:15:06.785Z,3.43
2023-05-01T04:17:36.321Z,3.73
2023-05-01T04:20:05.493Z,3.60
2023-05-01T04:22:35.049Z,4.57
2023-05-01T04:25:02.791Z,3.90
2023-05-01T04:27:30.609Z,3.97
2023-05-01T04:29:58.735Z,4.30
2023-05-01T04:32:26.768Z,4.40
2023-05-01T04:34:54.468Z,4.50
2023-05-01T04:37:22.224Z,4.40
2023-05-01T04:39:51.854Z,3.70
2023-05-01T04:42:19.632Z,3.60
2023-05-01T04:44:47.464Z,4.03
2023-05-01T04:47:15.229Z,3.70
2023-05-01T04:49:42.942Z,4.23
2023-05-01T04:52:10.665Z,3.83
2023-05-01T04:54:38.494Z,3.63
2023-05-01T04:57:08.541Z,3.80
2023-05-01T04:59:36.539Z,4.07
2023-05-01T05:02:06.022Z,3.97
2023-05-01T05:04:34.332Z,4.10
2023-05-01T05:07:02.287Z,4.50
2023-05-01T05:09:30.117Z,4.60
2023-05-01T05:11:57.870Z,4.30
2023-05-01T05:14:27.112Z,3.30
2023-05-01T05:16:54.839Z,3.40
2023-05-01T05:19:22.586Z,4.30
2023-05-01T05:21:50.318Z,4.20
2023-05-01T05:24:18.555Z,3.97
2023-05-01T05:26:47.226Z,4.00
2023-05-01T05:29:15.225Z,3.33
2023-05-01T05:31:44.312Z,3.53
2023-05-01T05:34:12.702Z,4.07
2023-05-01T05:36:40.551Z,4.17
2023-05-01T05:39:08.354Z,4.20
2023-05-01T05:41:36.158Z,3.90
2023-05-01T05:44:04.053Z,4.00
2023-05-01T05:46:31.870Z,4.30
2023-05-01T05:49:01.102Z,4.30
2023-05-01T05:51:29.041Z,3.67
2023-05-01T05:53:56.766Z,3.73
2023-05-01T05:56:24.996Z,4.53
2023-05-01T05:58:52.769Z,4.40
2023-05-01T06:01:20.577Z,4.13
2023-05-01T06:03:48.425Z,4.60
2023-05-01T06:06:17.670Z,4.67
2023-05-01T06:08:46.235Z,5.70
2023-05-01T06:11:13.994Z,4.30
2023-05-01T06:13:41.722Z,4.57
2023-05-01T06:16:09.507Z,4.20
2023-05-01T06:18:37.602Z,3.90
2023-05-01T06:21:05.547Z,3.95
2023-05-01T06:23:34.941Z,4.80
2023-05-01T06:26:02.674Z,4.63
2023-05-01T06:28:30.443Z,4.33
2023-05-01T06:30:58.192Z,4.23
2023-05-01T06:33:26.102Z,5.10
2023-05-01T06:35:54.557Z,5.00
2023-05-01T06:38:22.702Z,5.00
2023-05-01T06:40:52.738Z,4.47
2023-05-01T06:43:20.674Z,5.37
2023-05-01T06:45:48.415Z,5.30
2023-05-01T06:48:16.234Z,5.40
2023-05-01T06:50:44.082Z,4.97
2023-05-01T06:53:11.820Z,4.70
2023-05-01T06:55:42.651Z,4.67
2023-05-01T06:58:23.615Z,4.77
2023-05-01T07:00:52.360Z,4.40
2023-05-01T07:03:23.137Z,4.73
2023-05-01T07:05:53.208Z,4.50
2023-05-01T07:08:21.375Z,5.20
2023-05-01T07:10:49.606Z,6.33
2023-05-01T07:13:19.491Z,5.27
2023-05-01T07:15:47.266Z,6.20
2023-05-01T07:18:15.062Z,5.60
2023-05-01T07:20:42.813Z,5.80
2023-05-01T07:23:10.818Z,5.73
2023-05-01T07:25:38.603Z,4.90
2023-05-01T07:28:08.284Z,5.83
2023-05-01T07:30:38.374Z,6.47
2023-05-01T07:33:06.697Z,6.87
2023-05-01T07:35:34.503Z,6.63
2023-05-01T07:38:02.463Z,5.80
2023-05-01T07:40:30.231Z,5.50
2023-05-01T07:42:58.018Z,6.47
2023-05-01T07:45:25.774Z,5.10
2023-05-01T07:47:54.847Z,5.93
2023-05-01T07:50:23.240Z,5.90
2023-05-01T07:52:51.237Z,6.60
2023-05-01T07:55:19.334Z,7.23
2023-05-01T07:57:47.064Z,6.23
2023-05-01T08:00:16.076Z,6.03
2023-05-01T08:02:44.145Z,6.40
2023-05-01T08:05:13.228Z,5.70
2023-05-01T08:07:40.923Z,6.30
2023-05-01T08:10:09.604Z,5.90
2023-05-01T08:12:37.572Z,5.90
2023-05-01T08:15:06.246Z,6.07
2023-05-01T08:17:34.121Z,6.07
2023-05-01T08:20:01.842Z,6.00
2023-05-01T08:22:31.907Z,6.20
2023-05-01T08:24:59.652Z,6.67
2023-05-01T08:27:27.643Z,5.00
2023-05-01T08:29:55.610Z,8.60
2023-05-01T08:32:23.565Z,5.67
2023-05-01T08:34:51.316Z,6.00
2023-05-01T08:37:19.384Z,4.70
2023-05-01T08:39:48.535Z,5.53
2023-05-01T08:42:17.149Z,5.97
2023-05-01T08:44:46.474Z,5.53
2023-05-01T08:47:17.923Z,5.63
2023-05-01T08:49:47.156Z,4.90
2023-05-01T08:52:16.058Z,5.00
2023-05-01T08:54:44.929Z,4.50
2023-05-01T08:57:14.586Z,4.57
2023-05-01T08:59:42.682Z,4.77
2023-05-01T09:02:11.318Z,4.50
2023-05-01T09:04:40.273Z,4.80
2023-05-01T09:07:09.015Z,4.60
2023-05-01T09:09:36.993Z,5.13
2023-05-01T09:12:14.081Z,4.97
2023-05-01T09:14:43.318Z,4.63
2023-05-01T09:17:11.428Z,4.37
2023-05-01T09:19:40.740Z,3.97
2023-05-01T09:22:08.682Z,4.03
2023-05-01T09:24:36.665Z,3.90
2023-05-01T09:27:04.515Z,4.97
2023-05-01T09:29:40.003Z,4.00
2023-05-01T09:32:20.638Z,4.40
2023-05-01T09:34:49.724Z,4.23
2023-05-01T09:37:28.185Z,4.47
2023-05-01T09:40:10.126Z,3.83
2023-05-01T09:42:39.524Z,3.50
2023-05-01T09:45:14.545Z,4.60
2023-05-01T09:47:44.198Z,4.80
2023-05-01T09:50:13.713Z,4.27
2023-05-01T09:52:52.029Z,3.90
2023-05-01T09:55:20.446Z,5.13
2023-05-01T09:57:49.225Z,5.00
2023-05-01T10:00:20.457Z,4.80
2023-05-01T10:02:51.062Z,5.97
2023-05-01T10:05:19.374Z,5.90
2023-05-01T10:07:58.726Z,5.90
2023-05-01T10:10:26.588Z,5.27
2023-05-01T10:12:54.817Z,4.87
2023-05-01T10:15:25.996Z,4.30
2023-05-01T10:17:56.815Z,3.90
2023-05-01T10:20:24.650Z,4.67
2023-05-01T10:22:52.456Z,6.10
2023-05-01T10:25:22.439Z,4.53
2023-05-01T10:27:52.203Z,5.00
2023-05-01T10:30:22.164Z,4.60
2023-05-01T10:32:50.624Z,5.20
2023-05-01T10:35:25.086Z,4.00
2023-05-01T10:38:00.843Z,4.93
2023-05-01T10:40:48.943Z,4.50
2023-05-01T10:43:25.754Z,4.63
2023-05-01T10:45:54.592Z,3.80
2023-05-01T10:48:57.148Z,4.10
2023-05-01T10:51:28.005Z,3.60
2023-05-01T10:54:25.433Z,3.33
2023-05-01T10:56:54.153Z,3.90
2023-05-01T10:59:22.001Z,4.20
2023-05-01T11:01:51.979Z,4.13
2023-05-01T11:04:50.769Z,4.20
2023-05-01T11:07:23.872Z,3.93
2023-05-01T11:09:55.041Z,4.40
2023-05-01T11:12:52.203Z,4.17
2023-05-01T11:15:31.185Z,3.70
2023-05-01T11:18:00.248Z,3.43
2023-05-01T11:20:49.309Z,4.03
2023-05-01T11:23:23.529Z,3.90
2023-05-01T11:25:51.573Z,4.60
2023-05-01T11:28:23.197Z,3.50
2023-05-01T11:30:51.212Z,4.10
2023-05-01T11:33:28.427Z,5.17
2023-05-01T11:36:04.325Z,3.73
2023-05-01T11:38:33.407Z,4.13
2023-05-01T11:41:04.172Z,3.90
2023-05-01T11:43:32.723Z,3.97
2023-05-01T11:46:04.124Z,4.20
2023-05-01T11:48:32.741Z,4.87
2023-05-01T11:51:00.620Z,4.17
2023-05-01T11:53:28.657Z,3.60
2023-05-01T11:55:59.260Z,3.80
2023-05-01T11:58:34.631Z,3.90
2023-05-01T12:01:03.257Z,4.70
2023-05-01T12:03:42.385Z,4.13
2023-05-01T12:06:13.073Z,4.20
2023-05-01T12:08:45.109Z,4.57
2023-05-01T12:11:14.466Z,3.60
2023-05-01T12:13:42.754Z,4.13
2023-05-01T12:16:10.659Z,3.87
2023-05-01T12:18:38.710Z,4.17
2023-05-01T12:21:06.520Z,4.10
2023-05-01T12:23:37.292Z,4.07
2023-05-01T12:26:18.520Z,3.60
2023-05-01T12:28:57.032Z,4.07
2023-05-01T12:31:25.556Z,3.90
2023-05-01T12:33:57.500Z,3.77
2023-05-01T12:36:27.299Z,4.13
2023-05-01T12:39:01.047Z,3.97
2023-05-01T12:41:40.904Z,4.70
2023-05-01T12:44:19.524Z,3.80
2023-05-01T12:46:54.430Z,3.73
2023-05-01T12:49:22.953Z,4.00
2023-05-01T12:51:53.300Z,3.30
2023-05-01T12:54:22.190Z,4.20
2023-05-01T12:56:53.172Z,3.30
2023-05-01T12:59:23.052Z,3.27
2023-05-01T13:01:58.735Z,3.33
2023-05-01T13:04:27.355Z,3.27
2023-05-01T13:06:56.434Z,2.90
2023-05-01T13:09:24.965Z,3.33
2023-05-01T13:12:02.441Z,2.70
2023-05-01T13:14:31.543Z,3.17
2023-05-01T13:16:59.353Z,3.20
2023-05-01T13:19:28.871Z,3.40
2023-05-01T13:21:57.679Z,3.47
2023-05-01T13:24:25.938Z,3.50
2023-05-01T13:27:02.879Z,3.57
2023-05-01T13:29:33.240Z,3.33
2023-05-01T13:32:01.122Z,3.70
2023-05-01T13:34:31.965Z,3.57
2023-05-01T13:37:01.843Z,2.87
2023-05-01T13:39:30.264Z,3.10
2023-05-01T13:41:57.989Z,2.80
2023-05-01T13:44:28.253Z,3.20
2023-05-01T13:46:56.226Z,2.90
2023-05-01T13:49:24.513Z,2.90
2023-05-01T13:51:52.479Z,2.73
2023-05-01T13:54:20.568Z,2.93
2023-05-01T13:56:48.337Z,3.03
2023-05-01T13:59:16.066Z,3.20
2023-05-01T14:01:46.452Z,3.00
2023-05-01T14:04:17.829Z,2.67
2023-05-01T14:06:47.144Z,3.00
2023-05-01T14:09:17.542Z,2.80
2023-05-01T14:11:46.985Z,2.70
2023-05-01T14:14:17.042Z,2.90
2023-05-01T14:16:52.020Z,3.60
2023-05-01T14:19:20.094Z,3.80
2023-05-01T14:21:48.054Z,2.93
2023-05-01T14:24:18.693Z,3.53
2023-05-01T14:26:49.294Z,3.43
2023-05-01T14:29:25.697Z,2.87
2023-05-01T14:31:55.812Z,2.80
2023-05-01T14:34:24.209Z,3.40
2023-05-01T14:36:51.994Z,3.23
2023-05-01T14:39:19.918Z,3.17
2023-05-01T14:41:48.996Z,4.03
2023-05-01T14:44:18.850Z,3.90
2023-05-01T14:46:51.151Z,4.87
2023-05-01T14:49:22.190Z,3.50
2023-05-01T14:51:50.515Z,3.60
2023-05-01T14:54:18.874Z,4.33
2023-05-01T14:56:48.389Z,4.10
2023-05-01T14:59:17.179Z,3.30
2023-05-01T15:01:44.989Z,3.40
2023-05-01T15:04:13.104Z,3.63
2023-05-01T15:06:42.377Z,3.00
2023-05-01T15:09:10.250Z,3.10
2023-05-01T15:11:38.061Z,2.67
2023-05-01T15:14:05.894Z,2.80
2023-05-01T15:16:33.695Z,2.50
2023-05-01T15:19:01.460Z,2.70
2023-05-01T15:21:29.172Z,3.10
2023-05-01T15:23:58.235Z,2.30
2023-05-01T15:26:26.074Z,3.23
2023-05-01T15:28:54.084Z,3.30
2023-05-01T15:31:22.705Z,2.80
2023-05-01T15:33:50.776Z,2.57
2023-05-01T15:36:18.937Z,2.70
2023-05-01T15:38:48.084Z,2.90
2023-05-01T15:41:19.018Z,2.63
2023-05-01T15:43:47.090Z,3.03
2023-05-01T15:46:16.212Z,3.47
2023-05-01T15:48:44.163Z,3.10
2023-05-01T15:51:12.047Z,2.90
2023-05-01T15:53:39.961Z,3.50
2023-05-01T15:56:09.594Z,3.33
2023-05-01T15:58:38.711Z,3.47
2023-05-01T16:01:07.714Z,3.23
2023-05-01T16:03:35.881Z,3.13
2023-05-01T16:06:04.929Z,3.57
2023-05-01T16:08:33.571Z,2.90
2023-05-01T16:11:01.392Z,3.13
2023-05-01T16:13:29.241Z,11.87
2023-05-01T16:15:58.421Z,4.20
2023-05-01T16:18:26.328Z,2.70
2023-05-01T16:20:54.829Z,2.67
2023-05-01T16:23:22.737Z,3.03
2023-05-01T16:25:50.857Z,2.50
2023-05-01T16:28:18.685Z,3.40
2023-05-01T16:30:46.768Z,3.17
2023-05-01T16:33:18.975Z,3.30
2023-05-01T16:35:49.244Z,3.30
2023-05-01T16:38:17.191Z,3.40
2023-05-01T16:40:45.370Z,3.40
2023-05-01T16:43:13.393Z,4.33
2023-05-01T16:45:41.903Z,5.37
2023-05-01T16:48:09.965Z,4.40
2023-05-01T16:50:41.889Z,4.83
2023-05-01T16:53:09.660Z,3.87
2023-05-01T16:55:37.459Z,3.60
2023-05-01T16:58:05.279Z,3.83
2023-05-01T17:00:33.028Z,4.30
2023-05-01T17:03:00.787Z,3.43
2023-05-01T17:05:28.597Z,4.40
2023-05-01T17:07:57.678Z,4.00
2023-05-01T17:10:25.415Z,4.00
2023-05-01T17:12:53.157Z,3.80
2023-05-01T17:15:20.927Z,7.63
2023-05-01T17:17:48.749Z,4.70
2023-05-01T17:20:16.937Z,4.50
2023-05-01T17:22:45.585Z,5.07
2023-05-01T17:25:15.080Z,4.40
2023-05-01T17:27:42.809Z,3.90
2023-05-01T17:30:10.981Z,4.43
2023-05-01T17:32:38.843Z,4.03
2023-05-01T17:35:07.517Z,4.80
2023-05-01T17:37:35.277Z,4.47
2023-05-01T17:40:05.040Z,5.07
2023-05-01T17:42:36.262Z,3.43
2023-05-01T17:45:04.942Z,3.70
2023-05-01T17:47:32.896Z,4.10
2023-05-01T17:50:01.438Z,3.63
2023-05-01T17:52:29.846Z,3.90
2023-05-01T17:54:57.569Z,4.77
2023-05-01T17:57:25.328Z,4.10
2023-05-01T17:59:54.538Z,4.07
2023-05-01T18:02:22.868Z,4.90
2023-05-01T18:04:51.074Z,4.83
2023-05-01T18:07:18.944Z,4.77
2023-05-01T18:09:46.689Z,4.77
2023-05-01T18:12:14.483Z,4.50
2023-05-01T18:14:42.291Z,4.73
2023-05-01T18:17:11.591Z,4.07
2023-05-01T18:19:39.536Z,4.30
2023-05-01T18:22:10.124Z,4.70
2023-05-01T18:24:37.858Z,3.97
2023-05-01T18:27:05.670Z,4.40
2023-05-01T18:29:33.491Z,4.77
2023-05-01T18:32:01.321Z,4.57
2023-05-01T18:34:30.502Z,4.03
2023-05-01T18:36:58.260Z,3.87
2023-05-01T18:39:26.485Z,4.67
2023-05-01T18:41:55.839Z,4.00
2023-05-01T18:44:23.603Z,6.60
2023-05-01T18:46:51.413Z,5.33
2023-05-01T18:49:23.444Z,4.10
2023-05-01T18:51:52.607Z,3.87
2023-05-01T18:54:20.315Z,4.07
2023-05-01T18:56:48.059Z,4.73
2023-05-01T18:59:16.781Z,5.00
2023-05-01T19:01:44.610Z,4.70
2023-05-01T19:04:12.438Z,5.13
2023-05-01T19:06:40.993Z,4.83
2023-05-01T19:09:10.948Z,4.30
2023-05-01T19:11:38.665Z,4.40
2023-05-01T19:14:06.503Z,5.43
2023-05-01T19:16:34.290Z,5.17
2023-05-01T19:19:02.054Z,4.40
2023-05-01T19:21:30.457Z,5.30
2023-05-01T19:23:58.288Z,4.83
2023-05-01T19:26:29.141Z,6.57
2023-05-01T19:28:56.875Z,5.40
2023-05-01T19:31:25.276Z,4.63
2023-05-01T19:33:55.025Z,5.27
2023-05-01T19:36:23.033Z,5.30
2023-05-01T19:38:50.740Z,5.57
2023-05-01T19:41:18.438Z,6.17
2023-05-01T19:43:47.513Z,6.07
2023-05-01T19:46:15.274Z,4.70
2023-05-01T19:48:43.286Z,5.23
2023-05-01T19:51:11.831Z,5.90
2023-05-01T19:53:39.640Z,4.80
2023-05-01T19:56:07.418Z,5.53
2023-05-01T19:58:35.207Z,4.47
2023-05-01T20:01:08.287Z,5.40
2023-05-01T20:03:36.288Z,5.10
2023-05-01T20:06:05.524Z,6.30
2023-05-01T20:08:33.448Z,4.57
2023-05-01T20:11:01.724Z,4.87
2023-05-01T20:13:29.517Z,4.03
2023-05-01T20:15:57.242Z,3.73
2023-05-01T20:18:26.633Z,4.10
2023-05-01T20:20:54.450Z,4.87
2023-05-01T20:23:25.991Z,3.80
2023-05-01T20:25:53.745Z,3.60
2023-05-01T20:28:21.572Z,3.07
2023-05-01T20:30:49.820Z,3.75
2023-05-01T20:33:20.628Z,4.37
2023-05-01T20:35:51.152Z,5.07
2023-05-01T20:38:18.987Z,3.90
2023-05-01T20:40:46.859Z,4.45
2023-05-01T20:43:14.583Z,4.30
2023-05-01T20:45:42.611Z,4.37
2023-05-01T20:48:11.298Z,3.57
2023-05-01T20:50:41.401Z,4.30
2023-05-01T20:53:10.683Z,4.60
2023-05-01T20:55:38.432Z,3.67
2023-05-01T20:58:07.290Z,4.87
2023-05-01T21:00:35.047Z,4.20
2023-05-01T21:03:02.904Z,3.80
2023-05-01T21:05:30.715Z,3.60
2023-05-01T21:07:58.973Z,3.00
2023-05-01T21:10:30.022Z,3.73
2023-05-01T21:12:57.968Z,3.50
2023-05-01T21:15:26.894Z,4.17
2023-05-01T21:17:54.773Z,3.70
2023-05-01T21:20:31.225Z,3.27
2023-05-01T21:22:59.898Z,2.90
2023-05-01T21:25:32.115Z,3.40
2023-05-01T21:28:02.014Z,3.50
2023-05-01T21:30:33.005Z,3.60
2023-05-01T21:33:05.160Z,3.10
2023-05-01T21:35:33.350Z,3.10
2023-05-01T21:38:01.375Z,3.07
2023-05-01T21:40:30.547Z,3.13
2023-05-01T21:43:00.846Z,3.30
2023-05-01T21:45:28.632Z,3.53
2023-05-01T21:47:59.643Z,4.27
2023-05-01T21:50:33.015Z,3.40
2023-05-01T21:53:01.044Z,3.10
2023-05-01T21:55:30.828Z,2.93
2023-05-01T21:57:59.404Z,4.20
2023-05-01T22:00:27.272Z,3.43
2023-05-01T22:02:55.845Z,3.37
2023-05-01T22:05:24.149Z,3.13
2023-05-01T22:07:53.888Z,3.03
2023-05-01T22:10:22.000Z,3.90
2023-05-01T22:12:51.481Z,3.30
2023-05-01T22:15:19.571Z,3.53
2023-05-01T22:17:47.379Z,4.17
2023-05-01T22:20:15.232Z,3.80
2023-05-01T22:22:43.827Z,3.50
2023-05-01T22:25:13.145Z,4.40
2023-05-01T22:27:40.978Z,3.60
2023-05-01T22:30:11.295Z,3.97
2023-05-01T22:32:39.156Z,3.83
2023-05-01T22:35:08.453Z,3.50
2023-05-01T22:37:36.311Z,3.60
2023-05-01T22:40:04.455Z,3.90
2023-05-01T22:42:32.443Z,4.30
2023-05-01T22:45:00.304Z,4.20
2023-05-01T22:47:29.453Z,4.03
2023-05-01T22:49:57.612Z,3.80
2023-05-01T22:52:26.025Z,3.97
2023-05-01T22:54:53.939Z,3.87
2023-05-01T22:57:21.648Z,4.50
2023-05-01T22:59:50.200Z,4.33
2023-05-01T23:02:18.867Z,4.00
2023-05-01T23:04:48.368Z,3.90
2023-05-01T23:07:16.397Z,3.73
2023-05-01T23:09:44.305Z,4.43
2023-05-01T23:12:19.270Z,4.17
2023-05-01T23:14:47.694Z,5.80
2023-05-01T23:17:21.961Z,4.23
2023-05-01T23:19:51.318Z,4.53
2023-05-01T23:22:20.111Z,4.73
2023-05-01T23:24:49.299Z,4.13
2023-05-01T23:27:18.130Z,4.80
2023-05-01T23:29:55.045Z,4.17
2023-05-01T23:32:26.763Z,3.93
2023-05-01T23:34:57.350Z,4.70
2023-05-01T23:37:25.136Z,4.23
2023-05-01T23:39:53.551Z,4.20
2023-05-01T23:42:22.081Z,4.73
2023-05-01T23:44:50.061Z,4.10
2023-05-01T23:47:18.029Z,4.80
2023-05-01T23:49:45.846Z,4.93
2023-05-01T23:52:15.137Z,4.53
2023-05-01T23:54:42.914Z,4.20
2023-05-01T23:57:10.699Z,4.27
2023-05-01T23:59:38.582Z,4.40
